sensor_id;sensor_type;location;lat;lon;timestamp;pressure;altitude;pressure_sealevel;temperature;humidity
30383;BME280;17179;48.022;7.858;2022-07-05T00:01:47;99097.31;;;19.48;48.32
30383;BME280;17179;48.022;7.858;2022-07-05T00:04:12;99101.97;;;19.47;48.24
30383;BME280;17179;48.022;7.858;2022-07-05T00:06:37;99101.97;;;19.47;48.42
30383;BME280;17179;48.022;7.858;2022-07-05T00:09:23;99095.66;;;19.47;48.69
30383;BME280;17179;48.022;7.858;2022-07-05T00:11:48;99100.38;;;19.46;48.90
30383;BME280;17179;48.022;7.858;2022-07-05T00:14:13;99096.81;;;19.46;48.82
30383;BME280;17179;48.022;7.858;2022-07-05T00:16:39;99101.47;;;19.45;49.08
30383;BME280;17179;48.022;7.858;2022-07-05T00:19:04;99098.72;;;19.45;48.97
30383;BME280;17179;48.022;7.858;2022-07-05T00:21:29;99099.03;;;19.43;49.13
30383;BME280;17179;48.022;7.858;2022-07-05T00:23:55;99101.47;;;19.45;49.00
30383;BME280;17179;48.022;7.858;2022-07-05T00:26:20;99112.75;;;19.43;48.38
30383;BME280;17179;48.022;7.858;2022-07-05T00:28:45;99122.06;;;19.42;48.09
30383;BME280;17179;48.022;7.858;2022-07-05T00:31:11;99125.94;;;19.41;46.90
30383;BME280;17179;48.022;7.858;2022-07-05T00:33:36;99120.78;;;19.40;46.84
30383;BME280;17179;48.022;7.858;2022-07-05T00:36:02;99118.03;;;19.40;46.91
30383;BME280;17179;48.022;7.858;2022-07-05T00:38:27;99121.88;;;19.39;46.51
30383;BME280;17179;48.022;7.858;2022-07-05T00:40:52;99121.09;;;19.38;46.79
30383;BME280;17179;48.022;7.858;2022-07-05T00:43:18;99120.25;;;19.38;46.18
30383;BME280;17179;48.022;7.858;2022-07-05T00:45:43;99113.13;;;19.37;46.48
30383;BME280;17179;48.022;7.858;2022-07-05T00:48:08;99107.16;;;19.35;46.30
30383;BME280;17179;48.022;7.858;2022-07-05T00:50:34;99112.66;;;19.35;46.78
30383;BME280;17179;48.022;7.858;2022-07-05T00:53:00;99111.31;;;19.32;46.63
30383;BME280;17179;48.022;7.858;2022-07-05T00:55:25;99105.00;;;19.31;47.43
30383;BME280;17179;48.022;7.858;2022-07-05T00:57:51;99109.19;;;19.29;47.16
30383;BME280;17179;48.022;7.858;2022-07-05T01:00:17;99109.19;;;19.29;47.34
30383;BME280;17179;48.022;7.858;2022-07-05T01:02:43;99112.53;;;19.26;47.78
30383;BME280;17179;48.022;7.858;2022-07-05T01:05:08;99113.97;;;19.23;48.02
30383;BME280;17179;48.022;7.858;2022-07-05T01:07:34;99110.41;;;19.23;48.04
30383;BME280;17179;48.022;7.858;2022-07-05T01:10:00;99107.16;;;19.20;47.97
30383;BME280;17179;48.022;7.858;2022-07-05T01:12:25;99101.94;;;19.19;48.10
30383;BME280;17179;48.022;7.858;2022-07-05T01:14:51;99105.25;;;19.16;48.26
30383;BME280;17179;48.022;7.858;2022-07-05T01:17:16;99105.25;;;19.16;48.28
30383;BME280;17179;48.022;7.858;2022-07-05T01:19:42;99101.22;;;19.13;48.35
30383;BME280;17179;48.022;7.858;2022-07-05T01:22:15;99101.41;;;19.17;47.67
30383;BME280;17179;48.022;7.858;2022-07-05T01:24:41;99099.88;;;19.11;48.29
30383;BME280;17179;48.022;7.858;2022-07-05T01:27:07;99096.94;;;19.07;48.59
30383;BME280;17179;48.022;7.858;2022-07-05T01:29:32;99101.59;;;19.06;48.69
30383;BME280;17179;48.022;7.858;2022-07-05T01:31:58;99103.31;;;19.02;48.77
30383;BME280;17179;48.022;7.858;2022-07-05T01:34:23;99100.88;;;19.01;48.44
30383;BME280;17179;48.022;7.858;2022-07-05T01:36:48;99101.50;;;18.98;48.66
30383;BME280;17179;48.022;7.858;2022-07-05T01:39:15;99103.19;;;18.93;48.89
30383;BME280;17179;48.022;7.858;2022-07-05T01:41:40;99101.06;;;18.90;49.04
30383;BME280;17179;48.022;7.858;2022-07-05T01:44:05;99102.47;;;18.88;49.33
30383;BME280;17179;48.022;7.858;2022-07-05T01:46:32;99105.31;;;18.82;49.44
30383;BME280;17179;48.022;7.858;2022-07-05T01:49:00;99104.78;;;18.80;49.24
30383;BME280;17179;48.022;7.858;2022-07-05T01:51:31;99106.50;;;18.76;49.60
30383;BME280;17179;48.022;7.858;2022-07-05T01:53:58;99103.84;;;18.71;50.03
30383;BME280;17179;48.022;7.858;2022-07-05T01:56:23;99102.81;;;18.67;50.24
30383;BME280;17179;48.022;7.858;2022-07-05T01:58:51;99094.91;;;18.65;49.94
30383;BME280;17179;48.022;7.858;2022-07-05T02:01:31;99106.13;;;18.64;49.19
30383;BME280;17179;48.022;7.858;2022-07-05T02:03:57;99101.66;;;18.54;50.15
30383;BME280;17179;48.022;7.858;2022-07-05T02:06:22;99104.19;;;18.50;50.00
30383;BME280;17179;48.022;7.858;2022-07-05T02:08:48;99103.44;;;18.44;50.31
30383;BME280;17179;48.022;7.858;2022-07-05T02:11:13;99111.38;;;18.41;50.00
30383;BME280;17179;48.022;7.858;2022-07-05T02:13:38;99116.44;;;18.33;50.13
30383;BME280;17179;48.022;7.858;2022-07-05T02:16:04;99114.28;;;18.30;50.19
30383;BME280;17179;48.022;7.858;2022-07-05T02:18:29;99110.53;;;18.26;49.98
30383;BME280;17179;48.022;7.858;2022-07-05T02:20:55;99114.13;;;18.21;50.15
30383;BME280;17179;48.022;7.858;2022-07-05T02:23:20;99118.59;;;18.17;49.86
30383;BME280;17179;48.022;7.858;2022-07-05T02:25:45;99114.81;;;18.13;50.19
30383;BME280;17179;48.022;7.858;2022-07-05T02:28:11;99120.38;;;18.08;50.14
30383;BME280;17179;48.022;7.858;2022-07-05T02:30:36;99110.28;;;18.03;50.39
30383;BME280;17179;48.022;7.858;2022-07-05T02:33:01;99115.00;;;17.97;50.57
30383;BME280;17179;48.022;7.858;2022-07-05T02:35:27;99120.25;;;17.94;50.51
30383;BME280;17179;48.022;7.858;2022-07-05T02:37:52;99120.34;;;17.88;51.01
30383;BME280;17179;48.022;7.858;2022-07-05T02:40:17;99116.56;;;17.84;50.60
30383;BME280;17179;48.022;7.858;2022-07-05T02:42:43;99123.72;;;17.80;50.90
30383;BME280;17179;48.022;7.858;2022-07-05T02:45:09;99121.06;;;17.75;51.09
30383;BME280;17179;48.022;7.858;2022-07-05T02:47:34;99120.00;;;17.71;50.93
30383;BME280;17179;48.022;7.858;2022-07-05T02:50:18;99124.34;;;17.72;49.84
30383;BME280;17179;48.022;7.858;2022-07-05T02:52:43;99123.34;;;17.62;51.16
30383;BME280;17179;48.022;7.858;2022-07-05T02:55:09;99125.31;;;17.57;51.46
30383;BME280;17179;48.022;7.858;2022-07-05T02:57:37;99131.91;;;17.55;51.24
30383;BME280;17179;48.022;7.858;2022-07-05T03:00:03;99137.69;;;17.49;51.26
30383;BME280;17179;48.022;7.858;2022-07-05T03:02:29;99138.28;;;17.46;51.36
30383;BME280;17179;48.022;7.858;2022-07-05T03:04:54;99135.63;;;17.40;50.66
30383;BME280;17179;48.022;7.858;2022-07-05T03:07:19;99140.81;;;17.37;50.35
30383;BME280;17179;48.022;7.858;2022-07-05T03:09:45;99141.72;;;17.32;50.71
30383;BME280;17179;48.022;7.858;2022-07-05T03:12:10;99144.22;;;17.28;50.33
30383;BME280;17179;48.022;7.858;2022-07-05T03:14:35;99149.72;;;17.23;51.00
30383;BME280;17179;48.022;7.858;2022-07-05T03:17:01;99146.47;;;17.21;50.78
30383;BME280;17179;48.022;7.858;2022-07-05T03:19:26;99145.69;;;17.15;50.48
30383;BME280;17179;48.022;7.858;2022-07-05T03:21:51;99147.91;;;17.13;50.48
30383;BME280;17179;48.022;7.858;2022-07-05T03:24:17;99153.94;;;17.10;50.94
30383;BME280;17179;48.022;7.858;2022-07-05T03:26:42;99156.94;;;17.08;50.69
30383;BME280;17179;48.022;7.858;2022-07-05T03:29:08;99154.50;;;17.07;50.90
30383;BME280;17179;48.022;7.858;2022-07-05T03:31:33;99157.53;;;17.05;50.95
30383;BME280;17179;48.022;7.858;2022-07-05T03:33:59;99163.28;;;17.04;50.90
30383;BME280;17179;48.022;7.858;2022-07-05T03:36:24;99169.56;;;17.04;50.49
30383;BME280;17179;48.022;7.858;2022-07-05T03:38:50;99164.09;;;17.04;49.92
30383;BME280;17179;48.022;7.858;2022-07-05T03:41:15;99166.81;;;17.04;50.54
30383;BME280;17179;48.022;7.858;2022-07-05T03:43:40;99170.38;;;17.05;50.54
30383;BME280;17179;48.022;7.858;2022-07-05T03:46:06;99170.38;;;17.05;50.89
30383;BME280;17179;48.022;7.858;2022-07-05T03:48:33;99170.09;;;17.06;50.76
30383;BME280;17179;48.022;7.858;2022-07-05T03:50:58;99177.47;;;17.06;50.88
30383;BME280;17179;48.022;7.858;2022-07-05T03:53:23;99177.47;;;17.06;50.96
30383;BME280;17179;48.022;7.858;2022-07-05T03:55:49;99182.13;;;17.05;50.75
30383;BME280;17179;48.022;7.858;2022-07-05T03:58:14;99172.00;;;17.06;50.51
30383;BME280;17179;48.022;7.858;2022-07-05T04:00:39;99181.31;;;17.05;50.60
30383;BME280;17179;48.022;7.858;2022-07-05T04:03:05;99177.75;;;17.04;50.00
30383;BME280;17179;48.022;7.858;2022-07-05T04:05:30;99179.69;;;17.04;50.30
30383;BME280;17179;48.022;7.858;2022-07-05T04:07:56;99176.13;;;17.03;50.17
30383;BME280;17179;48.022;7.858;2022-07-05T04:10:22;99185.41;;;17.02;50.41
30383;BME280;17179;48.022;7.858;2022-07-05T04:12:47;99194.44;;;17.03;49.85
30383;BME280;17179;48.022;7.858;2022-07-05T04:15:13;99184.63;;;17.02;50.22
30383;BME280;17179;48.022;7.858;2022-07-05T04:17:50;99195.22;;;17.08;49.63
30383;BME280;17179;48.022;7.858;2022-07-05T04:20:16;99184.63;;;17.02;50.28
30383;BME280;17179;48.022;7.858;2022-07-05T04:22:42;99188.97;;;17.03;50.54
30383;BME280;17179;48.022;7.858;2022-07-05T04:25:08;99190.88;;;17.02;50.39
30383;BME280;17179;48.022;7.858;2022-07-05T04:27:53;99193.59;;;17.07;49.97
30383;BME280;17179;48.022;7.858;2022-07-05T04:30:21;99194.16;;;17.04;50.49
30383;BME280;17179;48.022;7.858;2022-07-05T04:32:47;99192.81;;;17.02;51.27
30383;BME280;17179;48.022;7.858;2022-07-05T04:35:13;99189.25;;;17.01;50.86
30383;BME280;17179;48.022;7.858;2022-07-05T04:37:38;99190.88;;;17.02;50.89
30383;BME280;17179;48.022;7.858;2022-07-05T04:40:05;99199.06;;;17.02;51.19
30383;BME280;17179;48.022;7.858;2022-07-05T04:42:31;99196.34;;;17.02;51.22
30383;BME280;17179;48.022;7.858;2022-07-05T04:44:56;99199.91;;;17.03;51.32
30383;BME280;17179;48.022;7.858;2022-07-05T04:47:22;99205.06;;;17.04;51.11
30383;BME280;17179;48.022;7.858;2022-07-05T04:49:47;99205.91;;;17.05;51.40
30383;BME280;17179;48.022;7.858;2022-07-05T04:52:13;99206.44;;;17.07;51.33
30383;BME280;17179;48.022;7.858;2022-07-05T04:54:38;99208.06;;;17.08;51.79
30383;BME280;17179;48.022;7.858;2022-07-05T04:57:04;99206.69;;;17.11;51.81
30383;BME280;17179;48.022;7.858;2022-07-05T04:59:29;99218.97;;;17.13;51.93
30383;BME280;17179;48.022;7.858;2022-07-05T05:01:55;99209.66;;;17.14;51.91
30383;BME280;17179;48.022;7.858;2022-07-05T05:04:20;99213.44;;;17.18;51.76
30383;BME280;17179;48.022;7.858;2022-07-05T05:06:46;99212.06;;;17.21;52.21
30383;BME280;17179;48.022;7.858;2022-07-05T05:09:12;99216.66;;;17.26;52.02
30383;BME280;17179;48.022;7.858;2022-07-05T05:11:37;99216.91;;;17.29;52.05
30383;BME280;17179;48.022;7.858;2022-07-05T05:14:03;99215.22;;;17.34;52.20
30383;BME280;17179;48.022;7.858;2022-07-05T05:16:28;99219.03;;;17.38;52.46
30383;BME280;17179;48.022;7.858;2022-07-05T05:18:53;99223.63;;;17.42;52.30
30383;BME280;17179;48.022;7.858;2022-07-05T05:21:19;99234.53;;;17.48;50.79
30383;BME280;17179;48.022;7.858;2022-07-05T05:23:44;99225.75;;;17.51;49.98
30383;BME280;17179;48.022;7.858;2022-07-05T05:26:10;99233.63;;;17.58;50.78
30383;BME280;17179;48.022;7.858;2022-07-05T05:28:35;99230.81;;;17.63;50.24
30383;BME280;17179;48.022;7.858;2022-07-05T05:31:00;99227.25;;;17.67;50.20
30383;BME280;17179;48.022;7.858;2022-07-05T05:33:26;99232.38;;;17.74;49.37
30383;BME280;17179;48.022;7.858;2022-07-05T05:35:51;99229.59;;;17.79;48.33
30383;BME280;17179;48.022;7.858;2022-07-05T05:38:17;99234.72;;;17.86;48.88
30383;BME280;17179;48.022;7.858;2022-07-05T05:40:42;99237.94;;;17.94;47.91
30383;BME280;17179;48.022;7.858;2022-07-05T05:43:09;99232.38;;;17.99;47.59
30383;BME280;17179;48.022;7.858;2022-07-05T05:45:34;99242.19;;;18.05;47.07
30383;BME280;17179;48.022;7.858;2022-07-05T05:48:00;99242.63;;;18.12;47.64
30383;BME280;17179;48.022;7.858;2022-07-05T05:50:30;99242.00;;;18.21;46.84
30383;BME280;17179;48.022;7.858;2022-07-05T05:52:56;99241.69;;;18.22;47.58
30383;BME280;17179;48.022;7.858;2022-07-05T05:55:23;99249.53;;;18.29;45.96
30383;BME280;17179;48.022;7.858;2022-07-05T05:57:49;99242.91;;;18.35;46.40
30383;BME280;17179;48.022;7.858;2022-07-05T06:00:15;99246.41;;;18.41;45.71
30383;BME280;17179;48.022;7.858;2022-07-05T06:02:42;99244.72;;;18.45;44.36
30383;BME280;17179;48.022;7.858;2022-07-05T06:05:08;99246.00;;;18.53;44.02
30383;BME280;17179;48.022;7.858;2022-07-05T06:08:03;99250.75;;;18.67;45.04
30383;BME280;17179;48.022;7.858;2022-07-05T06:10:30;99252.59;;;18.71;44.74
30383;BME280;17179;48.022;7.858;2022-07-05T06:12:58;99253.63;;;18.76;45.34
30383;BME280;17179;48.022;7.858;2022-07-05T06:15:24;99251.31;;;18.83;44.51
30383;BME280;17179;48.022;7.858;2022-07-05T06:17:49;99255.63;;;18.89;44.82
30383;BME280;17179;48.022;7.858;2022-07-05T06:20:23;99265.03;;;19.02;44.07
30383;BME280;17179;48.022;7.858;2022-07-05T06:22:50;99255.72;;;19.03;44.22
30383;BME280;17179;48.022;7.858;2022-07-05T06:25:16;99257.28;;;19.10;43.91
30383;BME280;17179;48.022;7.858;2022-07-05T06:27:43;99259.63;;;19.16;43.34
30383;BME280;17179;48.022;7.858;2022-07-05T06:30:09;99257.63;;;19.22;43.72
30383;BME280;17179;48.022;7.858;2022-07-05T06:32:35;99258.38;;;19.28;42.54
30383;BME280;17179;48.022;7.858;2022-07-05T06:35:01;99256.34;;;19.34;43.93
30383;BME280;17179;48.022;7.858;2022-07-05T06:37:26;99263.38;;;19.40;42.19
30383;BME280;17179;48.022;7.858;2022-07-05T06:39:52;99253.97;;;19.46;42.63
30383;BME280;17179;48.022;7.858;2022-07-05T06:42:17;99258.22;;;19.52;42.16
30383;BME280;17179;48.022;7.858;2022-07-05T06:44:42;99258.44;;;19.56;41.91
30383;BME280;17179;48.022;7.858;2022-07-05T06:47:09;99258.06;;;19.63;41.55
30383;BME280;17179;48.022;7.858;2022-07-05T06:49:34;99260.69;;;19.68;42.62
30383;BME280;17179;48.022;7.858;2022-07-05T06:52:00;99269.66;;;19.74;40.70
30383;BME280;17179;48.022;7.858;2022-07-05T06:54:25;99266.00;;;19.78;39.47
30383;BME280;17179;48.022;7.858;2022-07-05T06:56:50;99267.56;;;19.85;39.65
30383;BME280;17179;48.022;7.858;2022-07-05T06:59:16;99270.19;;;19.90;39.79
30383;BME280;17179;48.022;7.858;2022-07-05T07:01:41;99263.03;;;19.94;39.84
30383;BME280;17179;48.022;7.858;2022-07-05T07:04:06;99274.72;;;20.00;39.71
30383;BME280;17179;48.022;7.858;2022-07-05T07:06:32;99269.94;;;20.06;39.17
30383;BME280;17179;48.022;7.858;2022-07-05T07:08:57;99279.69;;;20.12;39.24
30383;BME280;17179;48.022;7.858;2022-07-05T07:11:41;99280.41;;;20.18;39.37
30383;BME280;17179;48.022;7.858;2022-07-05T07:14:06;99277.06;;;20.21;38.59
30383;BME280;17179;48.022;7.858;2022-07-05T07:16:32;99283.56;;;20.25;38.47
30383;BME280;17179;48.022;7.858;2022-07-05T07:18:57;99289.78;;;20.31;38.49
30383;BME280;17179;48.022;7.858;2022-07-05T07:21:23;99283.34;;;20.35;38.30
30383;BME280;17179;48.022;7.858;2022-07-05T07:23:48;99284.38;;;20.40;38.22
30383;BME280;17179;48.022;7.858;2022-07-05T07:26:14;99287.81;;;20.45;38.32
30383;BME280;17179;48.022;7.858;2022-07-05T07:28:40;99282.53;;;20.49;38.08
30383;BME280;17179;48.022;7.858;2022-07-05T07:31:06;99285.47;;;20.53;39.60
30383;BME280;17179;48.022;7.858;2022-07-05T07:33:31;99287.81;;;20.59;38.14
30383;BME280;17179;48.022;7.858;2022-07-05T07:35:58;99283.63;;;20.62;38.23
30383;BME280;17179;48.022;7.858;2022-07-05T07:38:23;99275.56;;;20.66;37.58
30383;BME280;17179;48.022;7.858;2022-07-05T07:40:49;99282.94;;;20.70;37.21
30383;BME280;17179;48.022;7.858;2022-07-05T07:43:15;99289.44;;;20.75;36.63
30383;BME280;17179;48.022;7.858;2022-07-05T07:45:40;99288.50;;;20.79;37.69
30383;BME280;17179;48.022;7.858;2022-07-05T07:48:05;99287.59;;;20.84;36.94
30383;BME280;17179;48.022;7.858;2022-07-05T07:50:31;99299.59;;;20.88;37.61
30383;BME280;17179;48.022;7.858;2022-07-05T07:52:56;99303.03;;;20.94;36.28
30383;BME280;17179;48.022;7.858;2022-07-05T07:55:22;99296.59;;;20.99;36.11
30383;BME280;17179;48.022;7.858;2022-07-05T07:57:47;99296.50;;;21.04;36.48
30383;BME280;17179;48.022;7.858;2022-07-05T08:00:12;99292.78;;;21.08;35.72
30383;BME280;17179;48.022;7.858;2022-07-05T08:02:38;99289.13;;;21.13;35.17
30383;BME280;17179;48.022;7.858;2022-07-05T08:05:04;99291.75;;;21.18;34.83
30383;BME280;17179;48.022;7.858;2022-07-05T08:07:30;99281.75;;;21.23;35.42
30383;BME280;17179;48.022;7.858;2022-07-05T08:09:55;99289.88;;;21.28;34.32
30383;BME280;17179;48.022;7.858;2022-07-05T08:12:21;99291.69;;;21.32;34.79
30383;BME280;17179;48.022;7.858;2022-07-05T08:14:46;99289.66;;;21.38;35.92
30383;BME280;17179;48.022;7.858;2022-07-05T08:17:12;99286.28;;;21.41;35.34
30383;BME280;17179;48.022;7.858;2022-07-05T08:19:38;99279.53;;;21.48;34.78
30383;BME280;17179;48.022;7.858;2022-07-05T08:22:22;99282.13;;;21.53;34.93
30383;BME280;17179;48.022;7.858;2022-07-05T08:24:48;99284.75;;;21.58;34.91
30383;BME280;17179;48.022;7.858;2022-07-05T08:27:14;99288.19;;;21.64;34.50
30383;BME280;17179;48.022;7.858;2022-07-05T08:29:39;99285.31;;;21.69;34.42
30383;BME280;17179;48.022;7.858;2022-07-05T08:32:05;99288.75;;;21.75;33.67
30383;BME280;17179;48.022;7.858;2022-07-05T08:34:31;99277.09;;;21.78;34.16
30383;BME280;17179;48.022;7.858;2022-07-05T08:36:57;99284.09;;;21.84;35.65
30383;BME280;17179;48.022;7.858;2022-07-05T08:39:22;99284.28;;;21.88;34.71
30383;BME280;17179;48.022;7.858;2022-07-05T08:41:49;99287.69;;;21.94;34.88
30383;BME280;17179;48.022;7.858;2022-07-05T08:44:18;99287.56;;;21.99;34.49
30383;BME280;17179;48.022;7.858;2022-07-05T08:46:44;99288.88;;;22.01;34.85
30383;BME280;17179;48.022;7.858;2022-07-05T08:49:13;99283.53;;;22.05;35.32
30383;BME280;17179;48.022;7.858;2022-07-05T08:51:40;99282.13;;;22.08;34.79
30383;BME280;17179;48.022;7.858;2022-07-05T08:54:10;99281.16;;;22.12;33.49
30383;BME280;17179;48.022;7.858;2022-07-05T08:56:37;99283.75;;;22.18;34.66
30383;BME280;17179;48.022;7.858;2022-07-05T08:59:03;99286.38;;;22.23;34.10
30383;BME280;17179;48.022;7.858;2022-07-05T09:01:28;99284.63;;;22.27;34.51
30383;BME280;17179;48.022;7.858;2022-07-05T09:03:59;99284.97;;;22.34;35.91
30383;BME280;17179;48.022;7.858;2022-07-05T09:06:25;99291.47;;;22.38;35.70
30383;BME280;17179;48.022;7.858;2022-07-05T09:08:55;99287.91;;;22.47;34.69
30383;BME280;17179;48.022;7.858;2022-07-05T09:11:24;99282.25;;;22.52;34.35
30383;BME280;17179;48.022;7.858;2022-07-05T09:13:51;99292.63;;;22.55;33.69
30383;BME280;17179;48.022;7.858;2022-07-05T09:16:17;99293.28;;;22.61;33.68
30383;BME280;17179;48.022;7.858;2022-07-05T09:18:50;99289.75;;;22.69;34.28
30383;BME280;17179;48.022;7.858;2022-07-05T09:23:43;99291.03;;;22.72;33.41
30383;BME280;17179;48.022;7.858;2022-07-05T09:26:09;99288.47;;;22.76;32.95
30383;BME280;17179;48.022;7.858;2022-07-05T09:28:35;99290.25;;;22.80;33.38
30383;BME280;17179;48.022;7.858;2022-07-05T09:31:01;99296.28;;;22.82;32.22
30383;BME280;17179;48.022;7.858;2022-07-05T09:33:26;99295.28;;;22.87;32.76
30383;BME280;17179;48.022;7.858;2022-07-05T09:35:56;99303.56;;;22.96;34.25
30383;BME280;17179;48.022;7.858;2022-07-05T09:38:27;99307.63;;;22.99;34.36
30383;BME280;17179;48.022;7.858;2022-07-05T09:40:54;99298.06;;;23.05;33.06
30383;BME280;17179;48.022;7.858;2022-07-05T09:43:29;99308.91;;;23.10;33.26
30383;BME280;17179;48.022;7.858;2022-07-05T09:45:59;99304.19;;;23.19;32.86
30383;BME280;17179;48.022;7.858;2022-07-05T09:48:26;99300.81;;;23.23;32.32
30383;BME280;17179;48.022;7.858;2022-07-05T09:50:52;99294.78;;;23.29;33.10
30383;BME280;17179;48.022;7.858;2022-07-05T09:53:18;99293.50;;;23.36;32.19
30383;BME280;17179;48.022;7.858;2022-07-05T09:56:01;99290.44;;;23.46;32.79
30383;BME280;17179;48.022;7.858;2022-07-05T09:58:26;99285.41;;;23.48;32.12
30383;BME280;17179;48.022;7.858;2022-07-05T10:00:52;99288.78;;;23.54;31.17
30383;BME280;17179;48.022;7.858;2022-07-05T10:03:17;99275.63;;;23.60;32.64
30383;BME280;17179;48.022;7.858;2022-07-05T10:05:42;99276.41;;;23.69;34.83
30383;BME280;17179;48.022;7.858;2022-07-05T10:08:08;99285.00;;;23.76;31.99
30383;BME280;17179;48.022;7.858;2022-07-05T10:10:35;99283.81;;;23.86;32.71
30383;BME280;17179;48.022;7.858;2022-07-05T10:13:03;99286.53;;;23.95;31.22
30383;BME280;17179;48.022;7.858;2022-07-05T10:15:30;99288.50;;;24.04;32.76
30383;BME280;17179;48.022;7.858;2022-07-05T10:18:08;99274.78;;;24.16;33.68
30383;BME280;17179;48.022;7.858;2022-07-05T10:23:06;99287.81;;;24.37;32.13
30383;BME280;17179;48.022;7.858;2022-07-05T10:25:32;99281.44;;;24.45;32.84
30383;BME280;17179;48.022;7.858;2022-07-05T10:27:58;99281.06;;;24.56;32.57
30383;BME280;17179;48.022;7.858;2022-07-05T10:30:24;99283.94;;;24.68;31.53
30383;BME280;17179;48.022;7.858;2022-07-05T10:32:50;99280.31;;;24.77;30.03
30383;BME280;17179;48.022;7.858;2022-07-05T10:35:16;99281.19;;;24.90;31.45
30383;BME280;17179;48.022;7.858;2022-07-05T10:37:42;99285.97;;;25.02;31.50
30383;BME280;17179;48.022;7.858;2022-07-05T10:40:09;99285.53;;;25.12;31.93
30383;BME280;17179;48.022;7.858;2022-07-05T10:42:39;99286.09;;;25.27;31.61
30383;BME280;17179;48.022;7.858;2022-07-05T10:55:57;99286.97;;;25.99;29.63
30383;BME280;17179;48.022;7.858;2022-07-05T10:58:25;99288.81;;;26.07;28.72
30383;BME280;17179;48.022;7.858;2022-07-05T11:03:37;99280.03;;;26.30;29.52
30383;BME280;17179;48.022;7.858;2022-07-05T11:06:04;99277.94;;;26.40;27.88
30383;BME280;17179;48.022;7.858;2022-07-05T11:08:31;99277.16;;;26.52;27.28
30383;BME280;17179;48.022;7.858;2022-07-05T11:11:16;99279.13;;;26.64;27.79
30383;BME280;17179;48.022;7.858;2022-07-05T11:13:41;99272.25;;;26.73;27.77
30383;BME280;17179;48.022;7.858;2022-07-05T11:16:28;99276.28;;;26.89;28.17
30383;BME280;17179;48.022;7.858;2022-07-05T11:19:11;99278.53;;;26.99;27.69
30383;BME280;17179;48.022;7.858;2022-07-05T11:21:40;99271.59;;;27.05;25.82
30383;BME280;17179;48.022;7.858;2022-07-05T11:24:27;99266.72;;;27.15;25.34
30383;BME280;17179;48.022;7.858;2022-07-05T11:26:57;99267.09;;;27.29;26.15
30383;BME280;17179;48.022;7.858;2022-07-05T11:29:42;99264.97;;;27.39;25.87
30383;BME280;17179;48.022;7.858;2022-07-05T11:32:09;99257.28;;;27.48;26.59
30383;BME280;17179;48.022;7.858;2022-07-05T11:34:36;99258.50;;;27.63;26.36
30383;BME280;17179;48.022;7.858;2022-07-05T11:39:43;99249.88;;;28.01;26.98
30383;BME280;17179;48.022;7.858;2022-07-05T11:42:09;99257.03;;;28.18;27.46
30383;BME280;17179;48.022;7.858;2022-07-05T11:44:35;99256.28;;;28.37;25.10
30383;BME280;17179;48.022;7.858;2022-07-05T11:47:02;99255.22;;;28.62;25.64
30383;BME280;17179;48.022;7.858;2022-07-05T11:49:27;99250.16;;;28.84;24.67
30383;BME280;17179;48.022;7.858;2022-07-05T11:52:00;99243.53;;;29.12;25.50
30383;BME280;17179;48.022;7.858;2022-07-05T11:54:27;99235.56;;;29.30;23.43
30383;BME280;17179;48.022;7.858;2022-07-05T11:56:53;99239.94;;;29.55;24.27
30383;BME280;17179;48.022;7.858;2022-07-05T11:59:19;99252.72;;;29.80;24.84
30383;BME280;17179;48.022;7.858;2022-07-05T12:01:46;99243.94;;;30.05;24.19
30383;BME280;17179;48.022;7.858;2022-07-05T12:04:11;99249.53;;;30.32;24.00
30383;BME280;17179;48.022;7.858;2022-07-05T12:06:41;99251.53;;;30.62;24.22
30383;BME280;17179;48.022;7.858;2022-07-05T12:09:07;99241.53;;;30.88;22.83
30383;BME280;17179;48.022;7.858;2022-07-05T12:11:32;99251.47;;;31.24;22.75
30383;BME280;17179;48.022;7.858;2022-07-05T12:14:22;99243.91;;;31.66;22.58
30383;BME280;17179;48.022;7.858;2022-07-05T12:17:34;99239.38;;;31.96;22.42
30383;BME280;17179;48.022;7.858;2022-07-05T12:19:35;99236.44;;;32.34;22.66
30383;BME280;17179;48.022;7.858;2022-07-05T12:22:00;99240.59;;;32.66;22.07
30383;BME280;17179;48.022;7.858;2022-07-05T12:24:26;99255.53;;;32.99;21.19
30383;BME280;17179;48.022;7.858;2022-07-05T12:26:51;99245.63;;;33.31;22.37
30383;BME280;17179;48.022;7.858;2022-07-05T12:29:17;99239.25;;;33.56;18.81
30383;BME280;17179;48.022;7.858;2022-07-05T12:32:04;99247.25;;;33.98;21.41
30383;BME280;17179;48.022;7.858;2022-07-05T12:34:33;99240.00;;;34.26;19.65
30383;BME280;17179;48.022;7.858;2022-07-05T12:36:59;99241.13;;;34.54;18.43
30383;BME280;17179;48.022;7.858;2022-07-05T12:39:24;99236.66;;;34.75;18.15
30383;BME280;17179;48.022;7.858;2022-07-05T12:41:50;99235.66;;;35.08;18.61
30383;BME280;17179;48.022;7.858;2022-07-05T12:44:19;99232.28;;;35.38;18.57
30383;BME280;17179;48.022;7.858;2022-07-05T12:46:45;99226.50;;;35.57;16.31
30383;BME280;17179;48.022;7.858;2022-07-05T12:49:11;99221.03;;;35.88;17.19
30383;BME280;17179;48.022;7.858;2022-07-05T12:51:39;99224.50;;;36.03;16.03
30383;BME280;17179;48.022;7.858;2022-07-05T12:54:19;99222.63;;;36.28;17.04
30383;BME280;17179;48.022;7.858;2022-07-05T12:57:03;99218.53;;;36.36;16.47
30383;BME280;17179;48.022;7.858;2022-07-05T13:00:02;99221.50;;;36.56;17.78
30383;BME280;17179;48.022;7.858;2022-07-05T13:02:42;99215.75;;;36.67;17.62
30383;BME280;17179;48.022;7.858;2022-07-05T13:05:19;99222.84;;;36.79;16.35
30383;BME280;17179;48.022;7.858;2022-07-05T13:07:45;99221.19;;;36.82;15.37
30383;BME280;17179;48.022;7.858;2022-07-05T13:10:18;99219.34;;;36.99;16.50
30383;BME280;17179;48.022;7.858;2022-07-05T13:12:44;99223.72;;;37.04;15.93
30383;BME280;17179;48.022;7.858;2022-07-05T13:15:09;99218.72;;;37.15;15.73
30383;BME280;17179;48.022;7.858;2022-07-05T13:17:36;99227.81;;;37.27;16.88
30383;BME280;17179;48.022;7.858;2022-07-05T13:20:01;99219.13;;;37.41;15.85
30383;BME280;17179;48.022;7.858;2022-07-05T13:22:28;99220.13;;;37.55;15.17